sensor_id;sensor_type;location;lat;lon;timestamp;P1;durP1;ratioP1;P2;durP2;ratioP2
58252;SDS011;44050;48.884;8.762;2023-09-08T00:01:25;2.97;;;2.67;;
58252;SDS011;44050;48.884;8.762;2023-09-08T00:03:56;2.92;;;2.60;;
58252;SDS011;44050;48.884;8.762;2023-09-08T00:06:27;2.67;;;1.92;;
58252;SDS011;44050;48.884;8.762;2023-09-08T00:08:57;2.40;;;2.20;;
58252;SDS011;44050;48.884;8.762;2023-09-08T00:11:28;2.05;;;1.85;;
58252;SDS011;44050;48.884;8.762;2023-09-08T00:13:59;3.05;;;2.10;;
58252;SDS011;44050;48.884;8.762;2023-09-08T00:19:01;4.22;;;2.95;;
58252;SDS011;44050;48.884;8.762;2023-09-08T00:21:31;2.20;;;1.58;;
58252;SDS011;44050;48.884;8.762;2023-09-08T00:24:02;2.33;;;1.83;;
58252;SDS011;44050;48.884;8.762;2023-09-08T00:26:34;1.42;;;1.25;;
58252;SDS011;44050;48.884;8.762;2023-09-08T00:29:05;2.47;;;1.90;;
58252;SDS011;44050;48.884;8.762;2023-09-08T00:34:06;2.00;;;1.90;;
58252;SDS011;44050;48.884;8.762;2023-09-08T00:36:37;1.58;;;1.45;;
58252;SDS011;44050;48.884;8.762;2023-09-08T00:39:07;2.10;;;2.00;;
58252;SDS011;44050;48.884;8.762;2023-09-08T00:44:09;1.43;;;1.33;;
58252;SDS011;44050;48.884;8.762;2023-09-08T00:46:41;2.03;;;1.83;;
58252;SDS011;44050;48.884;8.762;2023-09-08T00:51:44;2.38;;;1.77;;
58252;SDS011;44050;48.884;8.762;2023-09-08T00:54:14;1.98;;;1.58;;
58252;SDS011;44050;48.884;8.762;2023-09-08T00:59:16;1.50;;;1.40;;
58252;SDS011;44050;48.884;8.762;2023-09-08T01:01:47;2.00;;;1.35;;
58252;SDS011;44050;48.884;8.762;2023-09-08T01:06:48;1.90;;;1.80;;
58252;SDS011;44050;48.884;8.762;2023-09-08T01:09:19;2.47;;;1.83;;
58252;SDS011;44050;48.884;8.762;2023-09-08T01:14:21;2.75;;;2.55;;
58252;SDS011;44050;48.884;8.762;2023-09-08T01:19:22;1.63;;;1.38;;
58252;SDS011;44050;48.884;8.762;2023-09-08T01:27:17;1.73;;;1.63;;
58252;SDS011;44050;48.884;8.762;2023-09-08T01:29:49;6.03;;;2.90;;
58252;SDS011;44050;48.884;8.762;2023-09-08T01:32:20;2.55;;;2.35;;
58252;SDS011;44050;48.884;8.762;2023-09-08T01:34:51;2.55;;;2.33;;
58252;SDS011;44050;48.884;8.762;2023-09-08T01:37:22;2.47;;;1.83;;
58252;SDS011;44050;48.884;8.762;2023-09-08T01:39:53;2.40;;;1.83;;
58252;SDS011;44050;48.884;8.762;2023-09-08T01:42:24;3.03;;;2.80;;
58252;SDS011;44050;48.884;8.762;2023-09-08T01:47:27;2.10;;;1.50;;
58252;SDS011;44050;48.884;8.762;2023-09-08T01:49:58;1.80;;;1.70;;
58252;SDS011;44050;48.884;8.762;2023-09-08T01:52:29;1.90;;;1.80;;
58252;SDS011;44050;48.884;8.762;2023-09-08T01:57:32;4.53;;;1.90;;
58252;SDS011;44050;48.884;8.762;2023-09-08T02:02:43;3.05;;;2.75;;
58252;SDS011;44050;48.884;8.762;2023-09-08T02:07:44;1.63;;;1.53;;
58252;SDS011;44050;48.884;8.762;2023-09-08T02:12:45;1.90;;;1.70;;
58252;SDS011;44050;48.884;8.762;2023-09-08T02:17:49;2.33;;;2.13;;
58252;SDS011;44050;48.884;8.762;2023-09-08T02:20:19;1.80;;;1.70;;
58252;SDS011;44050;48.884;8.762;2023-09-08T02:25:23;1.80;;;1.67;;
58252;SDS011;44050;48.884;8.762;2023-09-08T02:27:53;1.88;;;1.45;;
58252;SDS011;44050;48.884;8.762;2023-09-08T02:30:25;2.33;;;2.13;;
58252;SDS011;44050;48.884;8.762;2023-09-08T02:32:56;6.88;;;2.00;;
58252;SDS011;44050;48.884;8.762;2023-09-08T02:37:59;2.45;;;1.73;;
58252;SDS011;44050;48.884;8.762;2023-09-08T02:40:32;2.22;;;2.03;;
58252;SDS011;44050;48.884;8.762;2023-09-08T02:43:05;3.15;;;1.90;;
58252;SDS011;44050;48.884;8.762;2023-09-08T02:48:06;1.77;;;1.67;;
58252;SDS011;44050;48.884;8.762;2023-09-08T02:53:07;2.63;;;2.07;;
58252;SDS011;44050;48.884;8.762;2023-09-08T02:58:09;1.87;;;1.67;;
58252;SDS011;44050;48.884;8.762;2023-09-08T03:03:10;2.03;;;1.90;;
58252;SDS011;44050;48.884;8.762;2023-09-08T03:08:12;1.83;;;1.73;;
58252;SDS011;44050;48.884;8.762;2023-09-08T03:13:13;1.57;;;1.40;;
58252;SDS011;44050;48.884;8.762;2023-09-08T03:18:14;2.17;;;1.93;;
58252;SDS011;44050;48.884;8.762;2023-09-08T03:23:15;1.77;;;1.40;;
58252;SDS011;44050;48.884;8.762;2023-09-08T03:28:17;1.33;;;1.13;;
58252;SDS011;44050;48.884;8.762;2023-09-08T03:33:18;1.60;;;1.50;;
58252;SDS011;44050;48.884;8.762;2023-09-08T03:38:19;10.33;;;2.33;;
58252;SDS011;44050;48.884;8.762;2023-09-08T03:43:21;1.47;;;1.37;;
58252;SDS011;44050;48.884;8.762;2023-09-08T03:48:22;2.50;;;1.77;;
58252;SDS011;44050;48.884;8.762;2023-09-08T03:53:23;2.23;;;2.07;;
58252;SDS011;44050;48.884;8.762;2023-09-08T03:55:55;2.20;;;2.00;;
58252;SDS011;44050;48.884;8.762;2023-09-08T04:00:56;1.70;;;1.60;;
58252;SDS011;44050;48.884;8.762;2023-09-08T04:06:00;1.35;;;1.27;;
58252;SDS011;44050;48.884;8.762;2023-09-08T04:11:02;2.20;;;1.43;;
58252;SDS011;44050;48.884;8.762;2023-09-08T04:16:03;1.65;;;1.55;;
58252;SDS011;44050;48.884;8.762;2023-09-08T04:21:06;2.70;;;1.60;;
58252;SDS011;44050;48.884;8.762;2023-09-08T04:23:37;1.88;;;1.77;;
58252;SDS011;44050;48.884;8.762;2023-09-08T04:28:38;1.53;;;1.43;;
58252;SDS011;44050;48.884;8.762;2023-09-08T04:31:09;2.20;;;2.00;;
58252;SDS011;44050;48.884;8.762;2023-09-08T04:33:41;3.40;;;1.98;;
58252;SDS011;44050;48.884;8.762;2023-09-08T04:43:45;1.00;;;1.00;;
58252;SDS011;44050;48.884;8.762;2023-09-08T04:46:16;3.97;;;2.90;;
58252;SDS011;44050;48.884;8.762;2023-09-08T04:48:47;2.30;;;2.10;;
58252;SDS011;44050;48.884;8.762;2023-09-08T04:53:48;1.77;;;1.67;;
58252;SDS011;44050;48.884;8.762;2023-09-08T04:58:50;5.17;;;1.60;;
58252;SDS011;44050;48.884;8.762;2023-09-08T05:01:21;2.30;;;2.10;;
58252;SDS011;44050;48.884;8.762;2023-09-08T05:06:23;2.83;;;1.70;;
58252;SDS011;44050;48.884;8.762;2023-09-08T05:11:26;2.55;;;2.38;;
58252;SDS011;44050;48.884;8.762;2023-09-08T05:13:58;3.58;;;2.38;;
58252;SDS011;44050;48.884;8.762;2023-09-08T05:16:29;6.55;;;2.17;;
58252;SDS011;44050;48.884;8.762;2023-09-08T05:19:19;1.95;;;1.83;;
58252;SDS011;44050;48.884;8.762;2023-09-08T05:21:51;2.38;;;2.17;;
58252;SDS011;44050;48.884;8.762;2023-09-08T05:24:22;2.78;;;2.50;;
58252;SDS011;44050;48.884;8.762;2023-09-08T05:29:24;1.83;;;1.73;;
58252;SDS011;44050;48.884;8.762;2023-09-08T05:31:55;3.72;;;2.05;;
58252;SDS011;44050;48.884;8.762;2023-09-08T05:34:26;2.40;;;2.15;;
58252;SDS011;44050;48.884;8.762;2023-09-08T05:39:28;1.63;;;1.50;;
58252;SDS011;44050;48.884;8.762;2023-09-08T05:44:29;2.83;;;1.97;;
58252;SDS011;44050;48.884;8.762;2023-09-08T05:49:30;3.40;;;2.10;;
58252;SDS011;44050;48.884;8.762;2023-09-08T05:54:33;1.55;;;1.45;;
58252;SDS011;44050;48.884;8.762;2023-09-08T05:57:05;1.90;;;1.80;;
58252;SDS011;44050;48.884;8.762;2023-09-08T05:59:37;1.45;;;1.30;;
58252;SDS011;44050;48.884;8.762;2023-09-08T06:04:38;2.30;;;1.80;;
58252;SDS011;44050;48.884;8.762;2023-09-08T06:09:40;1.98;;;1.45;;
58252;SDS011;44050;48.884;8.762;2023-09-08T06:14:41;8.77;;;3.00;;
58252;SDS011;44050;48.884;8.762;2023-09-08T06:19:43;4.30;;;1.50;;
58252;SDS011;44050;48.884;8.762;2023-09-08T06:24:44;3.23;;;1.93;;
58252;SDS011;44050;48.884;8.762;2023-09-08T06:27:15;2.15;;;1.90;;
58252;SDS011;44050;48.884;8.762;2023-09-08T06:29:46;2.55;;;1.48;;
58252;SDS011;44050;48.884;8.762;2023-09-08T06:32:19;2.30;;;2.10;;
58252;SDS011;44050;48.884;8.762;2023-09-08T06:34:52;1.70;;;1.60;;
58252;SDS011;44050;48.884;8.762;2023-09-08T06:39:54;1.63;;;1.53;;
58252;SDS011;44050;48.884;8.762;2023-09-08T06:42:25;1.83;;;1.48;;
58252;SDS011;44050;48.884;8.762;2023-09-08T06:45:02;2.28;;;2.03;;
58252;SDS011;44050;48.884;8.762;2023-09-08T06:50:03;3.00;;;1.80;;
58252;SDS011;44050;48.884;8.762;2023-09-08T06:55:05;2.58;;;2.38;;
58252;SDS011;44050;48.884;8.762;2023-09-08T07:00:07;2.65;;;2.47;;
58252;SDS011;44050;48.884;8.762;2023-09-08T07:02:38;2.55;;;2.35;;
58252;SDS011;44050;48.884;8.762;2023-09-08T07:05:09;3.38;;;3.08;;
58252;SDS011;44050;48.884;8.762;2023-09-08T07:07:41;6.47;;;2.97;;
58252;SDS011;44050;48.884;8.762;2023-09-08T07:10:12;4.03;;;2.28;;
58252;SDS011;44050;48.884;8.762;2023-09-08T07:12:43;3.17;;;2.83;;
58252;SDS011;44050;48.884;8.762;2023-09-08T07:15:14;3.28;;;2.97;;
58252;SDS011;44050;48.884;8.762;2023-09-08T07:17:46;2.33;;;2.22;;
58252;SDS011;44050;48.884;8.762;2023-09-08T07:20:17;3.75;;;3.47;;
58252;SDS011;44050;48.884;8.762;2023-09-08T07:22:48;2.85;;;2.40;;
58252;SDS011;44050;48.884;8.762;2023-09-08T07:25:19;3.22;;;2.80;;
58252;SDS011;44050;48.884;8.762;2023-09-08T07:27:50;7.00;;;3.20;;
58252;SDS011;44050;48.884;8.762;2023-09-08T07:30:24;3.22;;;2.92;;
58252;SDS011;44050;48.884;8.762;2023-09-08T07:32:56;2.97;;;2.78;;
58252;SDS011;44050;48.884;8.762;2023-09-08T07:35:28;3.00;;;2.75;;
58252;SDS011;44050;48.884;8.762;2023-09-08T07:37:59;3.60;;;3.30;;
58252;SDS011;44050;48.884;8.762;2023-09-08T07:40:34;2.83;;;2.63;;
58252;SDS011;44050;48.884;8.762;2023-09-08T07:43:05;3.45;;;3.15;;
58252;SDS011;44050;48.884;8.762;2023-09-08T07:45:36;3.42;;;2.80;;
58252;SDS011;44050;48.884;8.762;2023-09-08T07:48:07;3.33;;;3.03;;
58252;SDS011;44050;48.884;8.762;2023-09-08T07:50:37;4.00;;;3.63;;
58252;SDS011;44050;48.884;8.762;2023-09-08T07:53:08;2.85;;;2.60;;
58252;SDS011;44050;48.884;8.762;2023-09-08T07:55:39;3.97;;;3.08;;
58252;SDS011;44050;48.884;8.762;2023-09-08T07:58:10;3.97;;;2.88;;
58252;SDS011;44050;48.884;8.762;2023-09-08T08:00:40;3.83;;;3.35;;
58252;SDS011;44050;48.884;8.762;2023-09-08T08:03:11;5.78;;;3.60;;
58252;SDS011;44050;48.884;8.762;2023-09-08T08:05:42;3.90;;;3.42;;
58252;SDS011;44050;48.884;8.762;2023-09-08T08:08:12;7.00;;;3.67;;
58252;SDS011;44050;48.884;8.762;2023-09-08T08:10:43;6.55;;;3.38;;
58252;SDS011;44050;48.884;8.762;2023-09-08T08:13:14;3.63;;;3.33;;
58252;SDS011;44050;48.884;8.762;2023-09-08T08:15:47;7.53;;;3.35;;
58252;SDS011;44050;48.884;8.762;2023-09-08T08:18:18;3.55;;;3.25;;
58252;SDS011;44050;48.884;8.762;2023-09-08T08:20:49;4.50;;;2.55;;
58252;SDS011;44050;48.884;8.762;2023-09-08T08:23:20;3.25;;;3.05;;
58252;SDS011;44050;48.884;8.762;2023-09-08T08:25:51;2.88;;;2.67;;
58252;SDS011;44050;48.884;8.762;2023-09-08T08:28:22;3.95;;;3.00;;
58252;SDS011;44050;48.884;8.762;2023-09-08T08:30:53;3.17;;;2.78;;
58252;SDS011;44050;48.884;8.762;2023-09-08T08:33:23;3.20;;;3.00;;
58252;SDS011;44050;48.884;8.762;2023-09-08T08:35:56;5.75;;;3.05;;
58252;SDS011;44050;48.884;8.762;2023-09-08T08:38:27;3.88;;;3.58;;
58252;SDS011;44050;48.884;8.762;2023-09-08T08:41:02;3.00;;;2.80;;
58252;SDS011;44050;48.884;8.762;2023-09-08T08:43:33;3.53;;;3.13;;
58252;SDS011;44050;48.884;8.762;2023-09-08T08:46:04;3.47;;;3.20;;
58252;SDS011;44050;48.884;8.762;2023-09-08T08:48:34;2.75;;;2.55;;
58252;SDS011;44050;48.884;8.762;2023-09-08T08:51:07;4.53;;;2.88;;
58252;SDS011;44050;48.884;8.762;2023-09-08T08:53:38;4.25;;;2.95;;
58252;SDS011;44050;48.884;8.762;2023-09-08T08:56:09;8.65;;;4.18;;
58252;SDS011;44050;48.884;8.762;2023-09-08T08:58:40;3.38;;;3.17;;
58252;SDS011;44050;48.884;8.762;2023-09-08T09:01:12;3.65;;;3.33;;
58252;SDS011;44050;48.884;8.762;2023-09-08T09:03:42;10.95;;;4.00;;
58252;SDS011;44050;48.884;8.762;2023-09-08T09:06:14;3.47;;;2.83;;
58252;SDS011;44050;48.884;8.762;2023-09-08T09:08:48;4.07;;;3.55;;
58252;SDS011;44050;48.884;8.762;2023-09-08T09:11:18;3.22;;;3.03;;
58252;SDS011;44050;48.884;8.762;2023-09-08T09:13:49;4.00;;;3.63;;
58252;SDS011;44050;48.884;8.762;2023-09-08T09:16:20;3.45;;;3.25;;
58252;SDS011;44050;48.884;8.762;2023-09-08T09:18:58;3.35;;;3.05;;
58252;SDS011;44050;48.884;8.762;2023-09-08T09:21:41;3.42;;;2.60;;
58252;SDS011;44050;48.884;8.762;2023-09-08T09:24:29;3.78;;;3.58;;
58252;SDS011;44050;48.884;8.762;2023-09-08T09:27:01;3.75;;;2.85;;
58252;SDS011;44050;48.884;8.762;2023-09-08T09:29:32;3.88;;;3.58;;
58252;SDS011;44050;48.884;8.762;2023-09-08T09:32:06;3.80;;;3.45;;
58252;SDS011;44050;48.884;8.762;2023-09-08T09:34:48;5.45;;;3.15;;
58252;SDS011;44050;48.884;8.762;2023-09-08T09:37:20;3.97;;;3.67;;
58252;SDS011;44050;48.884;8.762;2023-09-08T09:39:52;4.65;;;4.18;;
58252;SDS011;44050;48.884;8.762;2023-09-08T09:42:22;3.33;;;3.08;;
58252;SDS011;44050;48.884;8.762;2023-09-08T09:44:53;5.40;;;3.28;;
58252;SDS011;44050;48.884;8.762;2023-09-08T09:47:24;3.38;;;3.08;;
58252;SDS011;44050;48.884;8.762;2023-09-08T09:49:57;6.65;;;3.20;;
58252;SDS011;44050;48.884;8.762;2023-09-08T09:52:29;4.00;;;3.05;;
58252;SDS011;44050;48.884;8.762;2023-09-08T09:55:02;3.38;;;3.08;;
58252;SDS011;44050;48.884;8.762;2023-09-08T09:57:32;3.35;;;3.10;;
58252;SDS011;44050;48.884;8.762;2023-09-08T10:00:03;3.95;;;2.85;;
58252;SDS011;44050;48.884;8.762;2023-09-08T10:02:36;3.92;;;3.63;;
58252;SDS011;44050;48.884;8.762;2023-09-08T10:05:13;3.78;;;3.47;;
58252;SDS011;44050;48.884;8.762;2023-09-08T10:07:45;4.47;;;3.30;;
58252;SDS011;44050;48.884;8.762;2023-09-08T10:10:17;4.15;;;3.55;;
58252;SDS011;44050;48.884;8.762;2023-09-08T10:12:54;5.38;;;2.97;;
58252;SDS011;44050;48.884;8.762;2023-09-08T10:15:25;7.85;;;3.42;;
58252;SDS011;44050;48.884;8.762;2023-09-08T10:17:56;4.30;;;3.03;;
58252;SDS011;44050;48.884;8.762;2023-09-08T10:20:27;4.68;;;3.03;;
58252;SDS011;44050;48.884;8.762;2023-09-08T10:23:04;3.63;;;3.35;;
58252;SDS011;44050;48.884;8.762;2023-09-08T10:25:37;3.88;;;3.58;;
58252;SDS011;44050;48.884;8.762;2023-09-08T10:28:12;8.73;;;4.13;;
58252;SDS011;44050;48.884;8.762;2023-09-08T10:30:42;3.10;;;2.90;;
58252;SDS011;44050;48.884;8.762;2023-09-08T10:33:13;4.95;;;3.70;;
58252;SDS011;44050;48.884;8.762;2023-09-08T10:35:45;2.88;;;2.60;;
58252;SDS011;44050;48.884;8.762;2023-09-08T10:43:46;3.83;;;3.60;;
58252;SDS011;44050;48.884;8.762;2023-09-08T10:46:27;3.65;;;3.35;;
58252;SDS011;44050;48.884;8.762;2023-09-08T10:49:02;8.27;;;3.78;;
58252;SDS011;44050;48.884;8.762;2023-09-08T10:51:37;4.25;;;3.95;;
58252;SDS011;44050;48.884;8.762;2023-09-08T10:54:09;4.47;;;2.65;;
58252;SDS011;44050;48.884;8.762;2023-09-08T10:56:55;4.53;;;4.13;;
58252;SDS011;44050;48.884;8.762;2023-09-08T10:59:31;6.22;;;4.03;;
58252;SDS011;44050;48.884;8.762;2023-09-08T11:02:05;5.32;;;3.75;;
58252;SDS011;44050;48.884;8.762;2023-09-08T11:04:36;3.70;;;3.28;;
58252;SDS011;44050;48.884;8.762;2023-09-08T11:07:07;4.25;;;3.85;;
58252;SDS011;44050;48.884;8.762;2023-09-08T11:09:38;3.85;;;2.97;;
58252;SDS011;44050;48.884;8.762;2023-09-08T11:12:09;4.47;;;3.72;;
58252;SDS011;44050;48.884;8.762;2023-09-08T11:14:40;3.28;;;3.00;;
58252;SDS011;44050;48.884;8.762;2023-09-08T11:17:10;3.72;;;3.42;;
58252;SDS011;44050;48.884;8.762;2023-09-08T11:19:45;3.95;;;3.55;;
58252;SDS011;44050;48.884;8.762;2023-09-08T11:22:16;4.43;;;3.38;;
58252;SDS011;44050;48.884;8.762;2023-09-08T11:24:47;3.45;;;3.25;;
58252;SDS011;44050;48.884;8.762;2023-09-08T11:27:19;3.90;;;3.60;;
58252;SDS011;44050;48.884;8.762;2023-09-08T11:29:51;4.03;;;3.60;;
58252;SDS011;44050;48.884;8.762;2023-09-08T11:32:22;4.13;;;3.72;;
58252;SDS011;44050;48.884;8.762;2023-09-08T11:34:52;3.72;;;3.42;;
58252;SDS011;44050;48.884;8.762;2023-09-08T11:37:23;3.67;;;3.38;;
58252;SDS011;44050;48.884;8.762;2023-09-08T11:39:54;4.28;;;3.13;;
58252;SDS011;44050;48.884;8.762;2023-09-08T11:42:26;5.75;;;3.00;;
58252;SDS011;44050;48.884;8.762;2023-09-08T11:44:57;3.20;;;3.00;;
58252;SDS011;44050;48.884;8.762;2023-09-08T11:47:31;3.72;;;3.42;;
58252;SDS011;44050;48.884;8.762;2023-09-08T11:50:02;6.10;;;3.50;;
58252;SDS011;44050;48.884;8.762;2023-09-08T11:52:32;3.33;;;3.13;;
58252;SDS011;44050;48.884;8.762;2023-09-08T11:55:03;2.97;;;2.85;;
58252;SDS011;44050;48.884;8.762;2023-09-08T11:57:34;3.67;;;3.47;;
58252;SDS011;44050;48.884;8.762;2023-09-08T12:00:06;3.55;;;3.28;;
58252;SDS011;44050;48.884;8.762;2023-09-08T12:02:40;3.45;;;3.15;;
58252;SDS011;44050;48.884;8.762;2023-09-08T12:05:11;3.80;;;3.50;;
58252;SDS011;44050;48.884;8.762;2023-09-08T12:07:42;3.50;;;3.22;;
58252;SDS011;44050;48.884;8.762;2023-09-08T12:10:14;4.32;;;3.22;;
58252;SDS011;44050;48.884;8.762;2023-09-08T12:12:54;4.32;;;3.58;;
58252;SDS011;44050;48.884;8.762;2023-09-08T12:18:05;6.00;;;3.28;;
58252;SDS011;44050;48.884;8.762;2023-09-08T12:20:37;2.88;;;2.67;;
58252;SDS011;44050;48.884;8.762;2023-09-08T12:25:48;4.57;;;3.33;;
58252;SDS011;44050;48.884;8.762;2023-09-08T12:28:20;4.22;;;3.33;;
58252;SDS011;44050;48.884;8.762;2023-09-08T12:30:51;3.85;;;3.55;;
58252;SDS011;44050;48.884;8.762;2023-09-08T12:33:25;3.53;;;3.30;;
58252;SDS011;44050;48.884;8.762;2023-09-08T12:35:56;3.08;;;2.88;;
58252;SDS011;44050;48.884;8.762;2023-09-08T12:38:30;4.32;;;3.92;;
58252;SDS011;44050;48.884;8.762;2023-09-08T12:41:01;2.95;;;2.70;;
58252;SDS011;44050;48.884;8.762;2023-09-08T12:43:32;4.25;;;2.92;;
58252;SDS011;44050;48.884;8.762;2023-09-08T12:46:02;7.90;;;4.03;;
58252;SDS011;44050;48.884;8.762;2023-09-08T12:48:33;3.40;;;3.20;;
58252;SDS011;44050;48.884;8.762;2023-09-08T12:51:04;3.22;;;2.95;;
58252;SDS011;44050;48.884;8.762;2023-09-08T12:53:34;2.88;;;2.67;;
58252;SDS011;44050;48.884;8.762;2023-09-08T12:56:06;4.38;;;3.10;;
58252;SDS011;44050;48.884;8.762;2023-09-08T12:58:36;2.85;;;2.70;;
58252;SDS011;44050;48.884;8.762;2023-09-08T13:01:07;2.83;;;2.63;;
58252;SDS011;44050;48.884;8.762;2023-09-08T13:03:38;4.93;;;2.90;;
58252;SDS011;44050;48.884;8.762;2023-09-08T13:06:08;3.83;;;3.22;;
58252;SDS011;44050;48.884;8.762;2023-09-08T13:08:39;3.55;;;3.35;;
58252;SDS011;44050;48.884;8.762;2023-09-08T13:11:10;3.63;;;3.33;;
58252;SDS011;44050;48.884;8.762;2023-09-08T13:13:41;3.28;;;3.03;;
58252;SDS011;44050;48.884;8.762;2023-09-08T13:16:20;3.70;;;3.40;;
58252;SDS011;44050;48.884;8.762;2023-09-08T13:18:51;3.33;;;3.13;;
58252;SDS011;44050;48.884;8.762;2023-09-08T13:21:22;5.97;;;3.08;;
58252;SDS011;44050;48.884;8.762;2023-09-08T13:23:53;3.33;;;3.13;;
58252;SDS011;44050;48.884;8.762;2023-09-08T13:26:23;3.63;;;3.33;;
58252;SDS011;44050;48.884;8.762;2023-09-08T13:28:54;3.17;;;2.70;;
58252;SDS011;44050;48.884;8.762;2023-09-08T13:31:25;3.70;;;3.30;;
58252;SDS011;44050;48.884;8.762;2023-09-08T13:33:55;2.95;;;2.75;;
58252;SDS011;44050;48.884;8.762;2023-09-08T13:36:26;3.20;;;3.00;;
58252;SDS011;44050;48.884;8.762;2023-09-08T13:38:57;3.03;;;2.83;;
58252;SDS011;44050;48.884;8.762;2023-09-08T13:41:44;2.92;;;2.75;;
58252;SDS011;44050;48.884;8.762;2023-09-08T13:44:14;3.78;;;3.47;;
58252;SDS011;44050;48.884;8.762;2023-09-08T13:46:54;6.47;;;2.90;;
58252;SDS011;44050;48.884;8.762;2023-09-08T13:49:25;3.45;;;2.88;;
58252;SDS011;44050;48.884;8.762;2023-09-08T13:51:56;3.17;;;3.00;;
58252;SDS011;44050;48.884;8.762;2023-09-08T13:54:34;3.95;;;3.65;;
58252;SDS011;44050;48.884;8.762;2023-09-08T13:57:22;6.03;;;3.80;;
58252;SDS011;44050;48.884;8.762;2023-09-08T13:59:56;3.67;;;3.17;;
58252;SDS011;44050;48.884;8.762;2023-09-08T14:02:27;3.30;;;3.00;;
58252;SDS011;44050;48.884;8.762;2023-09-08T14:04:58;3.13;;;2.92;;
58252;SDS011;44050;48.884;8.762;2023-09-08T14:07:30;2.88;;;2.67;;
58252;SDS011;44050;48.884;8.762;2023-09-08T14:10:01;2.83;;;2.63;;
58252;SDS011;44050;48.884;8.762;2023-09-08T14:12:33;3.00;;;2.80;;
58252;SDS011;44050;48.884;8.762;2023-09-08T14:15:04;5.18;;;2.75;;
58252;SDS011;44050;48.884;8.762;2023-09-08T14:17:35;3.58;;;2.70;;
58252;SDS011;44050;48.884;8.762;2023-09-08T14:20:06;3.50;;;2.78;;
58252;SDS011;44050;48.884;8.762;2023-09-08T14:22:38;3.08;;;2.78;;
58252;SDS011;44050;48.884;8.762;2023-09-08T14:25:12;4.05;;;2.72;;
58252;SDS011;44050;48.884;8.762;2023-09-08T14:27:43;2.55;;;2.45;;
58252;SDS011;44050;48.884;8.762;2023-09-08T14:30:14;3.97;;;2.95;;
58252;SDS011;44050;48.884;8.762;2023-09-08T14:32:45;2.80;;;2.60;;
58252;SDS011;44050;48.884;8.762;2023-09-08T14:35:16;3.10;;;2.80;;
58252;SDS011;44050;48.884;8.762;2023-09-08T14:37:47;2.75;;;2.53;;
58252;SDS011;44050;48.884;8.762;2023-09-08T14:40:24;7.70;;;3.13;;
58252;SDS011;44050;48.884;8.762;2023-09-08T14:42:55;3.95;;;2.60;;
58252;SDS011;44050;48.884;8.762;2023-09-08T14:45:25;4.50;;;3.45;;
58252;SDS011;44050;48.884;8.762;2023-09-08T14:47:57;3.20;;;3.00;;
58252;SDS011;44050;48.884;8.762;2023-09-08T14:50:28;3.50;;;3.20;;
58252;SDS011;44050;48.884;8.762;2023-09-08T14:52:59;3.28;;;2.97;;
58252;SDS011;44050;48.884;8.762;2023-09-08T14:55:29;3.40;;;3.20;;
58252;SDS011;44050;48.884;8.762;2023-09-08T14:58:01;3.00;;;2.80;;
58252;SDS011;44050;48.884;8.762;2023-09-08T15:00:32;2.88;;;2.67;;
58252;SDS011;44050;48.884;8.762;2023-09-08T15:03:03;4.05;;;3.08;;
58252;SDS011;44050;48.884;8.762;2023-09-08T15:05:35;3.33;;;3.00;;
58252;SDS011;44050;48.884;8.762;2023-09-08T15:08:10;2.55;;;2.42;;
58252;SDS011;44050;48.884;8.762;2023-09-08T15:10:42;3.17;;;2.90;;
58252;SDS011;44050;48.884;8.762;2023-09-08T15:13:13;3.42;;;2.78;;
58252;SDS011;44050;48.884;8.762;2023-09-08T15:15:44;8.73;;;3.30;;
58252;SDS011;44050;48.884;8.762;2023-09-08T15:18:15;3.00;;;2.70;;
58252;SDS011;44050;48.884;8.762;2023-09-08T15:20:51;3.13;;;2.92;;
58252;SDS011;44050;48.884;8.762;2023-09-08T15:23:22;3.50;;;3.00;;
58252;SDS011;44050;48.884;8.762;2023-09-08T15:25:54;2.95;;;2.75;;
58252;SDS011;44050;48.884;8.762;2023-09-08T15:28:25;3.10;;;2.90;;
58252;SDS011;44050;48.884;8.762;2023-09-08T15:30:55;2.70;;;2.50;;
58252;SDS011;44050;48.884;8.762;2023-09-08T15:33:26;3.90;;;3.05;;
58252;SDS011;44050;48.884;8.762;2023-09-08T15:35:57;3.17;;;2.65;;
58252;SDS011;44050;48.884;8.762;2023-09-08T15:38:28;2.83;;;2.63;;
58252;SDS011;44050;48.884;8.762;2023-09-08T15:43:39;3.78;;;2.72;;
58252;SDS011;44050;48.884;8.762;2023-09-08T15:46:10;5.50;;;2.95;;
58252;SDS011;44050;48.884;8.762;2023-09-08T15:48:41;3.35;;;2.35;;
58252;SDS011;44050;48.884;8.762;2023-09-08T15:51:12;2.55;;;2.45;;
58252;SDS011;44050;48.884;8.762;2023-09-08T15:53:43;3.53;;;3.13;;
58252;SDS011;44050;48.884;8.762;2023-09-08T15:56:14;3.08;;;2.78;;
58252;SDS011;44050;48.884;8.762;2023-09-08T15:58:46;2.83;;;2.63;;
58252;SDS011;44050;48.884;8.762;2023-09-08T16:01:16;2.85;;;2.75;;
58252;SDS011;44050;48.884;8.762;2023-09-08T16:03:47;3.47;;;3.28;;
58252;SDS011;44050;48.884;8.762;2023-09-08T16:06:18;3.55;;;3.22;;
58252;SDS011;44050;48.884;8.762;2023-09-08T16:08:49;3.10;;;2.80;;
58252;SDS011;44050;48.884;8.762;2023-09-08T16:11:20;2.90;;;2.70;;
58252;SDS011;44050;48.884;8.762;2023-09-08T16:13:51;2.88;;;2.63;;
58252;SDS011;44050;48.884;8.762;2023-09-08T16:16:22;2.60;;;2.45;;
58252;SDS011;44050;48.884;8.762;2023-09-08T16:18:53;2.63;;;2.42;;
58252;SDS011;44050;48.884;8.762;2023-09-08T16:21:23;2.60;;;2.40;;
58252;SDS011;44050;48.884;8.762;2023-09-08T16:23:54;5.75;;;2.75;;
58252;SDS011;44050;48.884;8.762;2023-09-08T16:26:25;5.18;;;3.65;;
58252;SDS011;44050;48.884;8.762;2023-09-08T16:28:56;3.17;;;2.78;;
58252;SDS011;44050;48.884;8.762;2023-09-08T16:31:26;3.05;;;2.85;;
58252;SDS011;44050;48.884;8.762;2023-09-08T16:33:57;3.83;;;3.63;;
58252;SDS011;44050;48.884;8.762;2023-09-08T16:36:28;3.92;;;3.30;;
58252;SDS011;44050;48.884;8.762;2023-09-08T16:38:59;3.00;;;2.78;;
58252;SDS011;44050;48.884;8.762;2023-09-08T16:41:30;3.88;;;3.58;;
58252;SDS011;44050;48.884;8.762;2023-09-08T16:44:00;3.58;;;3.22;;
58252;SDS011;44050;48.884;8.762;2023-09-08T16:46:31;2.90;;;2.60;;
58252;SDS011;44050;48.884;8.762;2023-09-08T16:49:02;2.70;;;2.50;;
58252;SDS011;44050;48.884;8.762;2023-09-08T16:51:32;3.78;;;3.47;;
58252;SDS011;44050;48.884;8.762;2023-09-08T16:54:03;2.97;;;2.78;;
58252;SDS011;44050;48.884;8.762;2023-09-08T16:56:34;3.05;;;2.78;;
58252;SDS011;44050;48.884;8.762;2023-09-08T16:59:04;6.97;;;3.38;;
58252;SDS011;44050;48.884;8.762;2023-09-08T17:01:36;3.58;;;2.90;;
58252;SDS011;44050;48.884;8.762;2023-09-08T17:04:07;3.28;;;3.08;;
58252;SDS011;44050;48.884;8.762;2023-09-08T17:06:40;3.22;;;2.95;;
58252;SDS011;44050;48.884;8.762;2023-09-08T17:09:13;3.15;;;2.92;;
58252;SDS011;44050;48.884;8.762;2023-09-08T17:11:45;3.53;;;3.33;;
58252;SDS011;44050;48.884;8.762;2023-09-08T17:14:16;3.00;;;2.80;;
58252;SDS011;44050;48.884;8.762;2023-09-08T17:16:46;3.85;;;2.53;;
58252;SDS011;44050;48.884;8.762;2023-09-08T17:19:17;4.47;;;3.50;;
58252;SDS011;44050;48.884;8.762;2023-09-08T17:21:48;4.15;;;3.78;;
58252;SDS011;44050;48.884;8.762;2023-09-08T17:24:20;4.90;;;3.53;;
58252;SDS011;44050;48.884;8.762;2023-09-08T17:26:51;5.15;;;3.25;;
58252;SDS011;44050;48.884;8.762;2023-09-08T17:29:22;3.65;;;3.35;;
58252;SDS011;44050;48.884;8.762;2023-09-08T17:31:53;4.05;;;3.63;;
58252;SDS011;44050;48.884;8.762;2023-09-08T17:34:24;3.20;;;3.00;;
58252;SDS011;44050;48.884;8.762;2023-09-08T17:36:55;3.92;;;3.63;;
58252;SDS011;44050;48.884;8.762;2023-09-08T17:39:26;3.50;;;3.05;;
58252;SDS011;44050;48.884;8.762;2023-09-08T17:41:57;4.68;;;4.18;;
58252;SDS011;44050;48.884;8.762;2023-09-08T17:44:27;4.82;;;3.47;;
58252;SDS011;44050;48.884;8.762;2023-09-08T17:46:58;4.82;;;4.43;;
58252;SDS011;44050;48.884;8.762;2023-09-08T17:49:29;3.55;;;3.25;;
58252;SDS011;44050;48.884;8.762;2023-09-08T17:52:00;4.75;;;3.83;;
58252;SDS011;44050;48.884;8.762;2023-09-08T17:54:31;8.43;;;4.25;;
58252;SDS011;44050;48.884;8.762;2023-09-08T17:57:02;3.00;;;2.80;;